sensor_id;sensor_type;location;lat;lon;timestamp;P1;durP1;ratioP1;P2;durP2;ratioP2
26920;SDS011;14483;47.844;9.660;2023-06-14T00:00:36;4.45;;;2.50;;
26920;SDS011;14483;47.844;9.660;2023-06-14T00:03:06;4.88;;;1.73;;
26920;SDS011;14483;47.844;9.660;2023-06-14T00:05:33;6.38;;;2.25;;
26920;SDS011;14483;47.844;9.660;2023-06-14T00:08:03;4.68;;;2.30;;
26920;SDS011;14483;47.844;9.660;2023-06-14T00:10:32;4.22;;;2.20;;
26920;SDS011;14483;47.844;9.660;2023-06-14T00:13:00;4.80;;;2.35;;
26920;SDS011;14483;47.844;9.660;2023-06-14T00:15:28;3.00;;;1.90;;
26920;SDS011;14483;47.844;9.660;2023-06-14T00:17:56;3.15;;;1.90;;
26920;SDS011;14483;47.844;9.660;2023-06-14T00:20:25;3.30;;;1.88;;
26920;SDS011;14483;47.844;9.660;2023-06-14T00:22:52;5.68;;;2.63;;
26920;SDS011;14483;47.844;9.660;2023-06-14T00:25:19;3.30;;;2.05;;
26920;SDS011;14483;47.844;9.660;2023-06-14T00:27:45;3.85;;;1.90;;
26920;SDS011;14483;47.844;9.660;2023-06-14T00:30:12;4.03;;;2.05;;
26920;SDS011;14483;47.844;9.660;2023-06-14T00:32:40;3.08;;;1.85;;
26920;SDS011;14483;47.844;9.660;2023-06-14T00:35:07;4.10;;;2.00;;
26920;SDS011;14483;47.844;9.660;2023-06-14T00:37:34;3.92;;;2.50;;
26920;SDS011;14483;47.844;9.660;2023-06-14T00:40:01;5.03;;;2.30;;
26920;SDS011;14483;47.844;9.660;2023-06-14T00:42:28;3.83;;;2.03;;
26920;SDS011;14483;47.844;9.660;2023-06-14T00:44:54;4.20;;;2.45;;
26920;SDS011;14483;47.844;9.660;2023-06-14T00:47:21;3.20;;;1.73;;
26920;SDS011;14483;47.844;9.660;2023-06-14T00:49:49;3.42;;;1.98;;
26920;SDS011;14483;47.844;9.660;2023-06-14T00:52:16;3.97;;;2.33;;
26920;SDS011;14483;47.844;9.660;2023-06-14T00:54:42;3.72;;;2.20;;
26920;SDS011;14483;47.844;9.660;2023-06-14T00:57:09;3.25;;;1.90;;
26920;SDS011;14483;47.844;9.660;2023-06-14T00:59:37;3.72;;;2.10;;
26920;SDS011;14483;47.844;9.660;2023-06-14T01:02:05;5.13;;;2.08;;
26920;SDS011;14483;47.844;9.660;2023-06-14T01:04:31;3.75;;;2.33;;
26920;SDS011;14483;47.844;9.660;2023-06-14T01:06:59;3.67;;;1.92;;
26920;SDS011;14483;47.844;9.660;2023-06-14T01:09:36;3.45;;;1.95;;
26920;SDS011;14483;47.844;9.660;2023-06-14T01:12:04;5.28;;;2.20;;
26920;SDS011;14483;47.844;9.660;2023-06-14T01:14:33;4.00;;;2.40;;
26920;SDS011;14483;47.844;9.660;2023-06-14T01:17:00;4.45;;;2.45;;
26920;SDS011;14483;47.844;9.660;2023-06-14T01:19:28;2.85;;;2.00;;
26920;SDS011;14483;47.844;9.660;2023-06-14T01:21:55;3.60;;;1.88;;
26920;SDS011;14483;47.844;9.660;2023-06-14T01:24:22;6.38;;;2.13;;
26920;SDS011;14483;47.844;9.660;2023-06-14T01:26:51;4.22;;;2.38;;
26920;SDS011;14483;47.844;9.660;2023-06-14T01:29:20;3.65;;;2.25;;
26920;SDS011;14483;47.844;9.660;2023-06-14T01:31:48;4.05;;;2.30;;
26920;SDS011;14483;47.844;9.660;2023-06-14T01:34:14;5.80;;;2.22;;
26920;SDS011;14483;47.844;9.660;2023-06-14T01:36:41;3.40;;;2.20;;
26920;SDS011;14483;47.844;9.660;2023-06-14T01:39:09;3.10;;;1.95;;
26920;SDS011;14483;47.844;9.660;2023-06-14T01:41:37;4.75;;;2.35;;
26920;SDS011;14483;47.844;9.660;2023-06-14T01:44:04;3.55;;;2.05;;
26920;SDS011;14483;47.844;9.660;2023-06-14T01:46:31;4.43;;;1.98;;
26920;SDS011;14483;47.844;9.660;2023-06-14T01:48:57;2.90;;;1.83;;
26920;SDS011;14483;47.844;9.660;2023-06-14T01:51:24;5.68;;;2.20;;
26920;SDS011;14483;47.844;9.660;2023-06-14T01:53:50;4.40;;;2.00;;
26920;SDS011;14483;47.844;9.660;2023-06-14T01:56:16;5.05;;;2.80;;
26920;SDS011;14483;47.844;9.660;2023-06-14T01:58:44;4.30;;;1.90;;
26920;SDS011;14483;47.844;9.660;2023-06-14T02:01:11;6.05;;;2.08;;
26920;SDS011;14483;47.844;9.660;2023-06-14T02:03:38;4.53;;;2.28;;
26920;SDS011;14483;47.844;9.660;2023-06-14T02:06:04;4.47;;;2.08;;
26920;SDS011;14483;47.844;9.660;2023-06-14T02:08:30;5.45;;;2.30;;
26920;SDS011;14483;47.844;9.660;2023-06-14T02:10:57;3.72;;;1.83;;
26920;SDS011;14483;47.844;9.660;2023-06-14T02:13:23;5.88;;;2.33;;
26920;SDS011;14483;47.844;9.660;2023-06-14T02:15:51;2.85;;;1.75;;
26920;SDS011;14483;47.844;9.660;2023-06-14T02:18:19;4.07;;;2.50;;
26920;SDS011;14483;47.844;9.660;2023-06-14T02:20:46;2.75;;;1.55;;
26920;SDS011;14483;47.844;9.660;2023-06-14T02:23:12;3.38;;;2.10;;
26920;SDS011;14483;47.844;9.660;2023-06-14T02:25:39;2.92;;;1.92;;
26920;SDS011;14483;47.844;9.660;2023-06-14T02:28:05;3.33;;;1.88;;
26920;SDS011;14483;47.844;9.660;2023-06-14T02:30:31;4.07;;;2.42;;
26920;SDS011;14483;47.844;9.660;2023-06-14T02:32:59;6.68;;;2.00;;
26920;SDS011;14483;47.844;9.660;2023-06-14T02:35:26;4.05;;;1.63;;
26920;SDS011;14483;47.844;9.660;2023-06-14T02:37:53;3.88;;;2.05;;
26920;SDS011;14483;47.844;9.660;2023-06-14T02:40:19;3.78;;;2.20;;
26920;SDS011;14483;47.844;9.660;2023-06-14T02:42:45;7.38;;;2.50;;
26920;SDS011;14483;47.844;9.660;2023-06-14T02:45:12;4.45;;;2.22;;
26920;SDS011;14483;47.844;9.660;2023-06-14T02:47:38;3.92;;;2.15;;
26920;SDS011;14483;47.844;9.660;2023-06-14T02:50:07;3.20;;;1.65;;
26920;SDS011;14483;47.844;9.660;2023-06-14T02:52:33;4.35;;;1.88;;
26920;SDS011;14483;47.844;9.660;2023-06-14T02:55:00;9.18;;;2.45;;
26920;SDS011;14483;47.844;9.660;2023-06-14T02:57:26;4.35;;;2.47;;
26920;SDS011;14483;47.844;9.660;2023-06-14T02:59:53;3.35;;;1.98;;
26920;SDS011;14483;47.844;9.660;2023-06-14T03:02:19;4.47;;;2.65;;
26920;SDS011;14483;47.844;9.660;2023-06-14T03:04:45;3.75;;;2.50;;
26920;SDS011;14483;47.844;9.660;2023-06-14T03:07:13;5.88;;;2.55;;
26920;SDS011;14483;47.844;9.660;2023-06-14T03:09:44;3.97;;;2.50;;
26920;SDS011;14483;47.844;9.660;2023-06-14T03:12:11;4.93;;;2.30;;
26920;SDS011;14483;47.844;9.660;2023-06-14T03:14:38;6.05;;;2.60;;
26920;SDS011;14483;47.844;9.660;2023-06-14T03:17:04;4.47;;;2.70;;
26920;SDS011;14483;47.844;9.660;2023-06-14T03:19:33;4.55;;;2.47;;
26920;SDS011;14483;47.844;9.660;2023-06-14T03:21:59;5.88;;;2.03;;
26920;SDS011;14483;47.844;9.660;2023-06-14T03:24:28;4.97;;;2.92;;
26920;SDS011;14483;47.844;9.660;2023-06-14T03:26:57;5.53;;;2.75;;
26920;SDS011;14483;47.844;9.660;2023-06-14T03:29:23;4.75;;;2.58;;
26920;SDS011;14483;47.844;9.660;2023-06-14T03:31:56;5.22;;;2.75;;
26920;SDS011;14483;47.844;9.660;2023-06-14T03:36:49;4.05;;;2.72;;
26920;SDS011;14483;47.844;9.660;2023-06-14T03:39:15;4.85;;;2.60;;
26920;SDS011;14483;47.844;9.660;2023-06-14T03:41:43;5.78;;;2.63;;
26920;SDS011;14483;47.844;9.660;2023-06-14T03:44:09;5.20;;;2.50;;
26920;SDS011;14483;47.844;9.660;2023-06-14T03:46:36;5.07;;;2.42;;
26920;SDS011;14483;47.844;9.660;2023-06-14T03:49:02;4.20;;;2.53;;
26920;SDS011;14483;47.844;9.660;2023-06-14T03:51:29;5.32;;;2.22;;
26920;SDS011;14483;47.844;9.660;2023-06-14T03:53:55;5.53;;;2.58;;
26920;SDS011;14483;47.844;9.660;2023-06-14T03:56:21;4.57;;;2.60;;
26920;SDS011;14483;47.844;9.660;2023-06-14T03:58:49;10.45;;;3.08;;
26920;SDS011;14483;47.844;9.660;2023-06-14T04:01:15;15.50;;;4.22;;
26920;SDS011;14483;47.844;9.660;2023-06-14T04:03:42;6.40;;;2.78;;
26920;SDS011;14483;47.844;9.660;2023-06-14T04:06:08;4.70;;;2.42;;
26920;SDS011;14483;47.844;9.660;2023-06-14T04:08:35;6.13;;;2.40;;
26920;SDS011;14483;47.844;9.660;2023-06-14T04:11:01;5.50;;;2.85;;
26920;SDS011;14483;47.844;9.660;2023-06-14T04:13:28;4.85;;;2.78;;
26920;SDS011;14483;47.844;9.660;2023-06-14T04:15:55;10.20;;;2.92;;
26920;SDS011;14483;47.844;9.660;2023-06-14T04:18:22;8.95;;;2.50;;
26920;SDS011;14483;47.844;9.660;2023-06-14T04:20:48;3.83;;;2.25;;
26920;SDS011;14483;47.844;9.660;2023-06-14T04:23:15;13.43;;;3.05;;
26920;SDS011;14483;47.844;9.660;2023-06-14T04:25:43;5.25;;;2.78;;
26920;SDS011;14483;47.844;9.660;2023-06-14T04:28:10;8.35;;;3.22;;
26920;SDS011;14483;47.844;9.660;2023-06-14T04:30:36;6.18;;;2.65;;
26920;SDS011;14483;47.844;9.660;2023-06-14T04:33:04;6.13;;;3.00;;
26920;SDS011;14483;47.844;9.660;2023-06-14T04:35:31;4.82;;;2.63;;
26920;SDS011;14483;47.844;9.660;2023-06-14T04:37:58;3.95;;;2.95;;
26920;SDS011;14483;47.844;9.660;2023-06-14T04:40:24;4.47;;;2.88;;
26920;SDS011;14483;47.844;9.660;2023-06-14T04:42:51;5.57;;;2.78;;
26920;SDS011;14483;47.844;9.660;2023-06-14T04:45:17;5.10;;;2.67;;
26920;SDS011;14483;47.844;9.660;2023-06-14T04:47:44;4.95;;;2.22;;
26920;SDS011;14483;47.844;9.660;2023-06-14T04:50:12;3.78;;;2.55;;
26920;SDS011;14483;47.844;9.660;2023-06-14T04:52:39;4.00;;;2.83;;
26920;SDS011;14483;47.844;9.660;2023-06-14T04:55:07;7.32;;;2.78;;
26920;SDS011;14483;47.844;9.660;2023-06-14T04:57:33;7.25;;;3.00;;
26920;SDS011;14483;47.844;9.660;2023-06-14T05:00:00;5.90;;;2.95;;
26920;SDS011;14483;47.844;9.660;2023-06-14T05:02:29;6.95;;;3.03;;
26920;SDS011;14483;47.844;9.660;2023-06-14T05:04:55;6.00;;;2.95;;
26920;SDS011;14483;47.844;9.660;2023-06-14T05:07:23;6.47;;;3.30;;
26920;SDS011;14483;47.844;9.660;2023-06-14T05:09:50;5.40;;;3.03;;
26920;SDS011;14483;47.844;9.660;2023-06-14T05:12:16;5.90;;;3.47;;
26920;SDS011;14483;47.844;9.660;2023-06-14T05:14:43;4.95;;;3.30;;
26920;SDS011;14483;47.844;9.660;2023-06-14T05:17:10;4.57;;;2.60;;
26920;SDS011;14483;47.844;9.660;2023-06-14T05:19:36;7.60;;;3.53;;
26920;SDS011;14483;47.844;9.660;2023-06-14T05:22:03;4.90;;;2.95;;
26920;SDS011;14483;47.844;9.660;2023-06-14T05:24:31;6.15;;;2.53;;
26920;SDS011;14483;47.844;9.660;2023-06-14T05:26:57;9.27;;;3.22;;
26920;SDS011;14483;47.844;9.660;2023-06-14T05:29:23;6.65;;;3.30;;
26920;SDS011;14483;47.844;9.660;2023-06-14T05:31:50;7.72;;;3.80;;
26920;SDS011;14483;47.844;9.660;2023-06-14T05:34:16;7.15;;;2.65;;
26920;SDS011;14483;47.844;9.660;2023-06-14T05:36:42;7.30;;;3.20;;
26920;SDS011;14483;47.844;9.660;2023-06-14T05:39:09;6.07;;;3.72;;
26920;SDS011;14483;47.844;9.660;2023-06-14T05:41:36;4.90;;;2.70;;
26920;SDS011;14483;47.844;9.660;2023-06-14T05:44:03;5.18;;;3.17;;
26920;SDS011;14483;47.844;9.660;2023-06-14T05:46:29;9.00;;;3.20;;
26920;SDS011;14483;47.844;9.660;2023-06-14T05:48:56;5.55;;;2.92;;
26920;SDS011;14483;47.844;9.660;2023-06-14T05:51:23;9.75;;;4.35;;
26920;SDS011;14483;47.844;9.660;2023-06-14T05:53:50;6.80;;;3.13;;
26920;SDS011;14483;47.844;9.660;2023-06-14T05:56:17;9.43;;;3.97;;
26920;SDS011;14483;47.844;9.660;2023-06-14T05:58:45;5.32;;;3.53;;
26920;SDS011;14483;47.844;9.660;2023-06-14T06:01:11;6.40;;;3.00;;
26920;SDS011;14483;47.844;9.660;2023-06-14T06:03:38;10.07;;;3.38;;
26920;SDS011;14483;47.844;9.660;2023-06-14T06:06:04;10.82;;;3.22;;
26920;SDS011;14483;47.844;9.660;2023-06-14T06:08:31;5.45;;;2.95;;
26920;SDS011;14483;47.844;9.660;2023-06-14T06:10:57;5.78;;;3.28;;
26920;SDS011;14483;47.844;9.660;2023-06-14T06:13:25;3.95;;;2.75;;
26920;SDS011;14483;47.844;9.660;2023-06-14T06:15:53;10.10;;;3.00;;
26920;SDS011;14483;47.844;9.660;2023-06-14T06:18:19;6.45;;;3.08;;
26920;SDS011;14483;47.844;9.660;2023-06-14T06:20:45;4.63;;;2.97;;
26920;SDS011;14483;47.844;9.660;2023-06-14T06:23:12;7.88;;;3.40;;
26920;SDS011;14483;47.844;9.660;2023-06-14T06:25:38;7.95;;;2.85;;
26920;SDS011;14483;47.844;9.660;2023-06-14T06:28:05;9.07;;;3.05;;
26920;SDS011;14483;47.844;9.660;2023-06-14T06:30:31;7.28;;;3.30;;
26920;SDS011;14483;47.844;9.660;2023-06-14T06:32:59;9.07;;;2.90;;
26920;SDS011;14483;47.844;9.660;2023-06-14T06:35:25;9.65;;;2.97;;
26920;SDS011;14483;47.844;9.660;2023-06-14T06:37:52;9.57;;;3.08;;
26920;SDS011;14483;47.844;9.660;2023-06-14T06:40:18;5.72;;;2.78;;
26920;SDS011;14483;47.844;9.660;2023-06-14T06:42:45;5.95;;;2.70;;
26920;SDS011;14483;47.844;9.660;2023-06-14T06:45:11;7.40;;;3.20;;
26920;SDS011;14483;47.844;9.660;2023-06-14T06:47:38;7.15;;;2.90;;
26920;SDS011;14483;47.844;9.660;2023-06-14T06:50:06;3.75;;;2.50;;
26920;SDS011;14483;47.844;9.660;2023-06-14T06:52:34;5.68;;;2.42;;
26920;SDS011;14483;47.844;9.660;2023-06-14T06:55:00;4.70;;;2.63;;
26920;SDS011;14483;47.844;9.660;2023-06-14T06:57:27;5.10;;;2.90;;
26920;SDS011;14483;47.844;9.660;2023-06-14T06:59:54;8.68;;;3.22;;
26920;SDS011;14483;47.844;9.660;2023-06-14T07:02:20;4.35;;;2.50;;
26920;SDS011;14483;47.844;9.660;2023-06-14T07:04:46;5.13;;;3.00;;
26920;SDS011;14483;47.844;9.660;2023-06-14T07:07:14;8.32;;;2.92;;
26920;SDS011;14483;47.844;9.660;2023-06-14T07:09:40;5.68;;;2.83;;
26920;SDS011;14483;47.844;9.660;2023-06-14T07:12:07;6.35;;;2.78;;
26920;SDS011;14483;47.844;9.660;2023-06-14T07:14:34;5.10;;;2.65;;
26920;SDS011;14483;47.844;9.660;2023-06-14T07:17:00;8.00;;;2.63;;
26920;SDS011;14483;47.844;9.660;2023-06-14T07:19:26;9.38;;;2.80;;
26920;SDS011;14483;47.844;9.660;2023-06-14T07:21:53;4.68;;;2.30;;
26920;SDS011;14483;47.844;9.660;2023-06-14T07:24:20;3.80;;;2.22;;
26920;SDS011;14483;47.844;9.660;2023-06-14T07:26:47;5.30;;;2.05;;
26920;SDS011;14483;47.844;9.660;2023-06-14T07:29:14;6.95;;;2.83;;
26920;SDS011;14483;47.844;9.660;2023-06-14T07:31:41;7.05;;;2.70;;
26920;SDS011;14483;47.844;9.660;2023-06-14T07:34:07;10.82;;;2.25;;
26920;SDS011;14483;47.844;9.660;2023-06-14T07:36:34;4.93;;;2.00;;
26920;SDS011;14483;47.844;9.660;2023-06-14T07:39:01;6.72;;;2.22;;
26920;SDS011;14483;47.844;9.660;2023-06-14T07:41:30;4.43;;;2.05;;
26920;SDS011;14483;47.844;9.660;2023-06-14T07:43:56;4.45;;;1.92;;
26920;SDS011;14483;47.844;9.660;2023-06-14T07:46:22;7.35;;;2.42;;
26920;SDS011;14483;47.844;9.660;2023-06-14T07:48:49;5.03;;;2.50;;
26920;SDS011;14483;47.844;9.660;2023-06-14T07:51:15;4.22;;;2.58;;
26920;SDS011;14483;47.844;9.660;2023-06-14T07:53:41;3.78;;;2.08;;
26920;SDS011;14483;47.844;9.660;2023-06-14T07:56:08;3.72;;;2.70;;
26920;SDS011;14483;47.844;9.660;2023-06-14T07:58:36;5.40;;;2.60;;
26920;SDS011;14483;47.844;9.660;2023-06-14T08:01:03;5.25;;;2.40;;
26920;SDS011;14483;47.844;9.660;2023-06-14T08:03:31;6.97;;;2.42;;
26920;SDS011;14483;47.844;9.660;2023-06-14T08:05:57;3.25;;;2.05;;
26920;SDS011;14483;47.844;9.660;2023-06-14T08:08:24;3.63;;;2.13;;
26920;SDS011;14483;47.844;9.660;2023-06-14T08:10:50;5.97;;;2.35;;
26920;SDS011;14483;47.844;9.660;2023-06-14T08:13:17;5.55;;;2.08;;
26920;SDS011;14483;47.844;9.660;2023-06-14T08:15:44;4.25;;;2.47;;
26920;SDS011;14483;47.844;9.660;2023-06-14T08:18:11;6.05;;;1.83;;
26920;SDS011;14483;47.844;9.660;2023-06-14T08:20:37;2.38;;;1.55;;
26920;SDS011;14483;47.844;9.660;2023-06-14T08:23:05;3.75;;;1.92;;
26920;SDS011;14483;47.844;9.660;2023-06-14T08:25:31;3.65;;;1.92;;
26920;SDS011;14483;47.844;9.660;2023-06-14T08:27:58;6.03;;;1.83;;
26920;SDS011;14483;47.844;9.660;2023-06-14T08:30:24;3.72;;;2.00;;
26920;SDS011;14483;47.844;9.660;2023-06-14T08:32:52;7.32;;;2.30;;
26920;SDS011;14483;47.844;9.660;2023-06-14T08:35:20;5.70;;;2.03;;
26920;SDS011;14483;47.844;9.660;2023-06-14T08:37:46;5.28;;;2.08;;
26920;SDS011;14483;47.844;9.660;2023-06-14T08:40:18;3.00;;;1.83;;
26920;SDS011;14483;47.844;9.660;2023-06-14T08:42:45;4.00;;;1.85;;
26920;SDS011;14483;47.844;9.660;2023-06-14T08:45:13;4.00;;;1.98;;
26920;SDS011;14483;47.844;9.660;2023-06-14T08:47:39;4.22;;;2.00;;
26920;SDS011;14483;47.844;9.660;2023-06-14T08:50:07;3.45;;;1.85;;
26920;SDS011;14483;47.844;9.660;2023-06-14T08:52:35;4.70;;;2.35;;
26920;SDS011;14483;47.844;9.660;2023-06-14T08:55:05;3.55;;;1.92;;
26920;SDS011;14483;47.844;9.660;2023-06-14T08:57:33;3.13;;;2.00;;
26920;SDS011;14483;47.844;9.660;2023-06-14T09:00:02;4.15;;;1.77;;
26920;SDS011;14483;47.844;9.660;2023-06-14T09:02:35;4.97;;;2.10;;
26920;SDS011;14483;47.844;9.660;2023-06-14T09:05:01;2.78;;;2.00;;
26920;SDS011;14483;47.844;9.660;2023-06-14T09:07:29;3.08;;;1.95;;
26920;SDS011;14483;47.844;9.660;2023-06-14T09:10:04;4.75;;;2.00;;
26920;SDS011;14483;47.844;9.660;2023-06-14T09:12:31;5.07;;;2.47;;
26920;SDS011;14483;47.844;9.660;2023-06-14T09:14:57;4.93;;;1.90;;
26920;SDS011;14483;47.844;9.660;2023-06-14T09:17:24;2.92;;;1.90;;
26920;SDS011;14483;47.844;9.660;2023-06-14T09:19:51;6.80;;;3.65;;
26920;SDS011;14483;47.844;9.660;2023-06-14T09:22:17;4.07;;;2.00;;
26920;SDS011;14483;47.844;9.660;2023-06-14T09:24:45;5.50;;;2.13;;
26920;SDS011;14483;47.844;9.660;2023-06-14T09:27:14;4.22;;;2.35;;
26920;SDS011;14483;47.844;9.660;2023-06-14T09:29:40;6.10;;;2.08;;
26920;SDS011;14483;47.844;9.660;2023-06-14T09:32:07;7.15;;;2.35;;
26920;SDS011;14483;47.844;9.660;2023-06-14T09:34:34;4.85;;;2.50;;
26920;SDS011;14483;47.844;9.660;2023-06-14T09:37:01;5.40;;;2.88;;
26920;SDS011;14483;47.844;9.660;2023-06-14T09:39:27;5.18;;;2.58;;
26920;SDS011;14483;47.844;9.660;2023-06-14T09:41:55;4.25;;;1.95;;
26920;SDS011;14483;47.844;9.660;2023-06-14T09:44:21;6.10;;;2.53;;
26920;SDS011;14483;47.844;9.660;2023-06-14T09:46:50;4.35;;;2.05;;
26920;SDS011;14483;47.844;9.660;2023-06-14T09:49:16;2.97;;;2.03;;
26920;SDS011;14483;47.844;9.660;2023-06-14T09:51:43;8.93;;;2.40;;
26920;SDS011;14483;47.844;9.660;2023-06-14T09:54:12;5.57;;;2.38;;
26920;SDS011;14483;47.844;9.660;2023-06-14T09:56:41;4.60;;;2.17;;
26920;SDS011;14483;47.844;9.660;2023-06-14T09:59:09;4.53;;;1.98;;
26920;SDS011;14483;47.844;9.660;2023-06-14T10:01:39;5.05;;;2.70;;
26920;SDS011;14483;47.844;9.660;2023-06-14T10:04:06;5.97;;;2.70;;
26920;SDS011;14483;47.844;9.660;2023-06-14T10:06:35;9.30;;;2.83;;
26920;SDS011;14483;47.844;9.660;2023-06-14T10:09:03;4.32;;;2.33;;
26920;SDS011;14483;47.844;9.660;2023-06-14T10:11:30;3.55;;;2.22;;
26920;SDS011;14483;47.844;9.660;2023-06-14T10:13:57;7.93;;;2.50;;
26920;SDS011;14483;47.844;9.660;2023-06-14T10:16:27;4.35;;;2.85;;
26920;SDS011;14483;47.844;9.660;2023-06-14T10:18:59;4.00;;;2.75;;
26920;SDS011;14483;47.844;9.660;2023-06-14T10:21:28;3.85;;;2.45;;
26920;SDS011;14483;47.844;9.660;2023-06-14T10:23:59;6.22;;;2.40;;
26920;SDS011;14483;47.844;9.660;2023-06-14T10:26:27;13.38;;;2.33;;
26920;SDS011;14483;47.844;9.660;2023-06-14T10:28:59;6.25;;;2.72;;
26920;SDS011;14483;47.844;9.660;2023-06-14T10:34:22;3.83;;;2.05;;
26920;SDS011;14483;47.844;9.660;2023-06-14T10:36:59;3.30;;;2.25;;
26920;SDS011;14483;47.844;9.660;2023-06-14T10:39:26;3.25;;;2.22;;
26920;SDS011;14483;47.844;9.660;2023-06-14T10:41:53;4.45;;;2.33;;
26920;SDS011;14483;47.844;9.660;2023-06-14T10:44:33;9.95;;;2.42;;
26920;SDS011;14483;47.844;9.660;2023-06-14T10:47:00;5.68;;;2.20;;
26920;SDS011;14483;47.844;9.660;2023-06-14T10:49:40;3.33;;;2.25;;
26920;SDS011;14483;47.844;9.660;2023-06-14T10:52:08;4.60;;;2.45;;
26920;SDS011;14483;47.844;9.660;2023-06-14T10:54:36;4.57;;;2.50;;
26920;SDS011;14483;47.844;9.660;2023-06-14T10:57:03;3.92;;;2.40;;
26920;SDS011;14483;47.844;9.660;2023-06-14T10:59:32;5.80;;;2.45;;
26920;SDS011;14483;47.844;9.660;2023-06-14T11:02:03;4.32;;;2.38;;
26920;SDS011;14483;47.844;9.660;2023-06-14T11:04:39;4.78;;;2.33;;
26920;SDS011;14483;47.844;9.660;2023-06-14T11:07:18;5.22;;;2.50;;
26920;SDS011;14483;47.844;9.660;2023-06-14T11:10:02;6.35;;;2.67;;
26920;SDS011;14483;47.844;9.660;2023-06-14T11:12:32;6.50;;;2.75;;
26920;SDS011;14483;47.844;9.660;2023-06-14T11:15:00;2.88;;;2.20;;
26920;SDS011;14483;47.844;9.660;2023-06-14T11:17:27;4.25;;;2.30;;
26920;SDS011;14483;47.844;9.660;2023-06-14T11:20:07;4.38;;;2.67;;
26920;SDS011;14483;47.844;9.660;2023-06-14T11:22:41;6.43;;;2.65;;
26920;SDS011;14483;47.844;9.660;2023-06-14T11:25:08;4.55;;;2.22;;
26920;SDS011;14483;47.844;9.660;2023-06-14T11:27:34;3.08;;;2.00;;
26920;SDS011;14483;47.844;9.660;2023-06-14T11:30:01;4.78;;;2.90;;
26920;SDS011;14483;47.844;9.660;2023-06-14T11:32:27;8.48;;;2.90;;
26920;SDS011;14483;47.844;9.660;2023-06-14T11:34:54;9.95;;;2.50;;
26920;SDS011;14483;47.844;9.660;2023-06-14T11:37:20;6.65;;;3.10;;
26920;SDS011;14483;47.844;9.660;2023-06-14T11:39:49;4.13;;;2.47;;
26920;SDS011;14483;47.844;9.660;2023-06-14T11:42:15;3.17;;;2.17;;
26920;SDS011;14483;47.844;9.660;2023-06-14T11:44:42;4.05;;;2.47;;
26920;SDS011;14483;47.844;9.660;2023-06-14T11:47:08;4.18;;;2.25;;
26920;SDS011;14483;47.844;9.660;2023-06-14T11:49:35;4.90;;;2.20;;
26920;SDS011;14483;47.844;9.660;2023-06-14T11:52:01;4.10;;;2.00;;
26920;SDS011;14483;47.844;9.660;2023-06-14T11:54:28;3.47;;;2.55;;
26920;SDS011;14483;47.844;9.660;2023-06-14T11:56:56;4.60;;;2.20;;
26920;SDS011;14483;47.844;9.660;2023-06-14T11:59:23;5.95;;;2.80;;
26920;SDS011;14483;47.844;9.660;2023-06-14T12:01:50;6.22;;;2.72;;
26920;SDS011;14483;47.844;9.660;2023-06-14T12:04:23;3.33;;;2.58;;
26920;SDS011;14483;47.844;9.660;2023-06-14T12:06:49;3.40;;;2.42;;
26920;SDS011;14483;47.844;9.660;2023-06-14T12:09:18;4.00;;;2.63;;
26920;SDS011;14483;47.844;9.660;2023-06-14T12:11:45;3.60;;;2.60;;
26920;SDS011;14483;47.844;9.660;2023-06-14T12:14:12;4.60;;;2.60;;
26920;SDS011;14483;47.844;9.660;2023-06-14T12:16:39;7.00;;;2.53;;
26920;SDS011;14483;47.844;9.660;2023-06-14T12:19:11;5.00;;;2.55;;
26920;SDS011;14483;47.844;9.660;2023-06-14T12:21:38;4.60;;;2.60;;
26920;SDS011;14483;47.844;9.660;2023-06-14T12:24:05;7.88;;;2.97;;
26920;SDS011;14483;47.844;9.660;2023-06-14T12:26:32;5.07;;;2.53;;
26920;SDS011;14483;47.844;9.660;2023-06-14T12:28:59;5.10;;;2.97;;
26920;SDS011;14483;47.844;9.660;2023-06-14T12:31:27;5.70;;;2.65;;
26920;SDS011;14483;47.844;9.660;2023-06-14T12:33:54;7.57;;;2.20;;
26920;SDS011;14483;47.844;9.660;2023-06-14T12:36:21;4.70;;;2.45;;
26920;SDS011;14483;47.844;9.660;2023-06-14T12:38:47;12.27;;;3.15;;
26920;SDS011;14483;47.844;9.660;2023-06-14T12:41:14;3.45;;;2.33;;
26920;SDS011;14483;47.844;9.660;2023-06-14T12:43:40;5.13;;;2.30;;
26920;SDS011;14483;47.844;9.660;2023-06-14T12:46:07;2.97;;;2.17;;
26920;SDS011;14483;47.844;9.660;2023-06-14T12:48:35;2.88;;;2.38;;
26920;SDS011;14483;47.844;9.660;2023-06-14T12:51:01;5.10;;;2.75;;
26920;SDS011;14483;47.844;9.660;2023-06-14T12:53:27;7.82;;;2.58;;
26920;SDS011;14483;47.844;9.660;2023-06-14T12:55:54;5.82;;;2.75;;
26920;SDS011;14483;47.844;9.660;2023-06-14T12:58:20;5.93;;;2.58;;
26920;SDS011;14483;47.844;9.660;2023-06-14T13:00:48;6.18;;;2.40;;
26920;SDS011;14483;47.844;9.660;2023-06-14T13:03:15;5.15;;;2.15;;
26920;SDS011;14483;47.844;9.660;2023-06-14T13:05:45;3.35;;;2.22;;
26920;SDS011;14483;47.844;9.660;2023-06-14T13:08:12;3.85;;;2.60;;
26920;SDS011;14483;47.844;9.660;2023-06-14T13:10:38;4.18;;;2.30;;
26920;SDS011;14483;47.844;9.660;2023-06-14T13:13:04;2.80;;;2.08;;
26920;SDS011;14483;47.844;9.660;2023-06-14T13:15:32;3.08;;;2.20;;
26920;SDS011;14483;47.844;9.660;2023-06-14T13:17:58;7.45;;;2.13;;
26920;SDS011;14483;47.844;9.660;2023-06-14T13:20:25;3.53;;;2.25;;
26920;SDS011;14483;47.844;9.660;2023-06-14T13:22:53;3.80;;;2.45;;
26920;SDS011;14483;47.844;9.660;2023-06-14T13:25:19;5.32;;;2.25;;
26920;SDS011;14483;47.844;9.660;2023-06-14T13:27:47;4.18;;;2.15;;
26920;SDS011;14483;47.844;9.660;2023-06-14T13:30:14;2.40;;;1.80;;
26920;SDS011;14483;47.844;9.660;2023-06-14T13:32:40;6.63;;;2.15;;
26920;SDS011;14483;47.844;9.660;2023-06-14T13:35:06;2.80;;;2.20;;
26920;SDS011;14483;47.844;9.660;2023-06-14T13:37:33;3.03;;;2.42;;
26920;SDS011;14483;47.844;9.660;2023-06-14T13:40:01;3.55;;;2.53;;
26920;SDS011;14483;47.844;9.660;2023-06-14T13:42:27;4.47;;;2.17;;
26920;SDS011;14483;47.844;9.660;2023-06-14T13:44:56;5.35;;;2.58;;
26920;SDS011;14483;47.844;9.660;2023-06-14T13:47:22;3.40;;;2.17;;
26920;SDS011;14483;47.844;9.660;2023-06-14T13:49:48;4.43;;;2.40;;
26920;SDS011;14483;47.844;9.660;2023-06-14T13:52:15;2.72;;;2.10;;
26920;SDS011;14483;47.844;9.660;2023-06-14T13:54:41;4.57;;;2.33;;
26920;SDS011;14483;47.844;9.660;2023-06-14T13:57:09;4.32;;;2.30;;
26920;SDS011;14483;47.844;9.660;2023-06-14T13:59:37;3.65;;;2.60;;
26920;SDS011;14483;47.844;9.660;2023-06-14T14:02:04;3.35;;;2.38;;
26920;SDS011;14483;47.844;9.660;2023-06-14T14:04:30;3.95;;;2.40;;
26920;SDS011;14483;47.844;9.660;2023-06-14T14:06:57;4.93;;;2.38;;
26920;SDS011;14483;47.844;9.660;2023-06-14T14:09:23;5.70;;;2.92;;
26920;SDS011;14483;47.844;9.660;2023-06-14T14:11:49;3.38;;;2.92;;
26920;SDS011;14483;47.844;9.660;2023-06-14T14:14:17;10.45;;;3.20;;
26920;SDS011;14483;47.844;9.660;2023-06-14T14:16:43;3.70;;;2.90;;
26920;SDS011;14483;47.844;9.660;2023-06-14T14:19:10;3.67;;;2.80;;
26920;SDS011;14483;47.844;9.660;2023-06-14T14:21:36;3.45;;;2.45;;
26920;SDS011;14483;47.844;9.660;2023-06-14T14:24:03;5.93;;;3.30;;
26920;SDS011;14483;47.844;9.660;2023-06-14T14:26:30;3.50;;;3.00;;
26920;SDS011;14483;47.844;9.660;2023-06-14T14:28:56;7.50;;;3.45;;
26920;SDS011;14483;47.844;9.660;2023-06-14T14:31:24;6.65;;;3.20;;
26920;SDS011;14483;47.844;9.660;2023-06-14T14:33:51;4.90;;;3.45;;
26920;SDS011;14483;47.844;9.660;2023-06-14T14:36:17;4.90;;;3.40;;
26920;SDS011;14483;47.844;9.660;2023-06-14T14:38:43;5.95;;;2.75;;
26920;SDS011;14483;47.844;9.660;2023-06-14T14:41:10;3.63;;;3.00;;
26920;SDS011;14483;47.844;9.660;2023-06-14T14:43:36;8.32;;;3.47;;
26920;SDS011;14483;47.844;9.660;2023-06-14T14:46:02;6.68;;;3.42;;
26920;SDS011;14483;47.844;9.660;2023-06-14T14:48:30;6.80;;;3.65;;
26920;SDS011;14483;47.844;9.660;2023-06-14T14:50:57;4.00;;;3.13;;
26920;SDS011;14483;47.844;9.660;2023-06-14T14:53:23;5.35;;;2.95;;